createdAt,value
2023-03-02T00:04:01.352Z,98322.00
2023-03-02T00:08:04.813Z,98322.22
2023-03-02T00:12:08.025Z,98318.09
2023-03-02T00:16:10.538Z,98309.13
2023-03-02T00:20:13.007Z,98310.06
2023-03-02T00:24:15.840Z,98306.03
2023-03-02T00:28:17.909Z,98300.94
2023-03-02T00:32:20.508Z,98306.53
2023-03-02T00:36:24.084Z,98309.16
2023-03-02T00:40:26.183Z,98299.06
2023-03-02T00:44:28.594Z,98297.69
2023-03-02T00:48:30.731Z,98296.94
2023-03-02T00:52:33.968Z,98300.06
2023-03-02T00:56:36.114Z,98311.94
2023-03-02T01:00:40.637Z,98302.75
2023-03-02T01:04:45.097Z,98299.28
2023-03-02T01:08:47.775Z,98302.91
2023-03-02T01:12:49.918Z,98300.50
2023-03-02T01:16:52.212Z,98293.47
2023-03-02T01:21:11.163Z,98286.69
2023-03-02T01:25:14.214Z,98289.75
2023-03-02T01:29:17.210Z,98282.09
2023-03-02T01:33:19.650Z,98284.59
2023-03-02T01:37:23.432Z,98278.75
2023-03-02T01:41:25.599Z,98273.41
2023-03-02T01:45:44.069Z,98275.00
2023-03-02T01:49:58.612Z,98258.84
2023-03-02T01:54:10.665Z,98264.25
2023-03-02T01:58:16.044Z,98260.44
2023-03-02T02:02:18.673Z,98257.66
2023-03-02T02:06:32.378Z,98260.09
2023-03-02T02:10:38.317Z,98252.66
2023-03-02T02:14:41.734Z,98256.72
2023-03-02T02:18:44.769Z,98249.88
2023-03-02T02:23:26.373Z,98247.94
2023-03-02T02:27:29.927Z,98247.38
2023-03-02T02:31:39.926Z,98246.88
2023-03-02T02:35:45.974Z,98239.31
2023-03-02T02:39:49.955Z,98240.56
2023-03-02T02:43:53.322Z,98229.50
2023-03-02T02:47:56.362Z,98236.25
2023-03-02T02:51:59.454Z,98235.53
2023-03-02T02:56:02.282Z,98247.25
2023-03-02T03:00:06.767Z,98248.34
2023-03-02T03:04:14.780Z,98253.22
2023-03-02T03:08:49.492Z,98251.63
2023-03-02T03:12:58.506Z,98251.00
2023-03-02T03:17:02.574Z,98262.47
2023-03-02T03:21:05.454Z,98253.22
2023-03-02T03:25:07.929Z,98250.44
2023-03-02T03:29:11.493Z,98250.44
2023-03-02T03:33:14.205Z,98237.34
2023-03-02T03:37:19.864Z,98242.97
2023-03-02T03:41:23.208Z,98230.44
2023-03-02T03:45:25.416Z,98226.06
2023-03-02T03:49:28.646Z,98228.38
2023-03-02T03:53:31.370Z,98233.28
2023-03-02T03:57:33.747Z,98230.56
2023-03-02T04:01:48.468Z,98230.34
2023-03-02T04:05:51.977Z,98228.44
2023-03-02T04:10:03.623Z,98228.94
2023-03-02T04:14:09.458Z,98221.88
2023-03-02T04:18:11.720Z,98216.91
2023-03-02T04:22:16.821Z,98225.38
2023-03-02T04:26:19.616Z,98233.06
2023-03-02T04:30:25.878Z,98234.19
2023-03-02T04:34:29.160Z,98235.59
2023-03-02T04:38:31.529Z,98244.75
2023-03-02T04:42:33.850Z,98251.25
2023-03-02T04:46:36.624Z,98247.28
2023-03-02T04:50:39.004Z,98248.56
2023-03-02T04:54:41.402Z,98257.63
2023-03-02T04:58:43.795Z,98260.63
2023-03-02T05:02:45.983Z,98271.72
2023-03-02T05:06:48.662Z,98263.84
2023-03-02T05:10:50.862Z,98257.16
2023-03-02T05:14:53.438Z,98269.63
2023-03-02T05:18:56.341Z,98257.84
2023-03-02T05:23:04.708Z,98257.41
2023-03-02T05:27:06.777Z,98260.03
2023-03-02T05:31:14.494Z,98265.44
2023-03-02T05:35:17.600Z,98253.56
2023-03-02T05:39:20.082Z,98252.09
2023-03-02T05:43:23.611Z,98260.78
2023-03-02T05:47:26.077Z,98255.84
2023-03-02T05:51:28.317Z,98254.09
2023-03-02T05:55:30.915Z,98258.00
2023-03-02T05:59:33.229Z,98261.53
2023-03-02T06:03:35.352Z,98268.09
2023-03-02T06:07:37.729Z,98272.66
2023-03-02T06:11:39.799Z,98267.19
2023-03-02T06:15:43.260Z,98264.56
2023-03-02T06:19:45.462Z,98268.38
2023-03-02T06:23:47.492Z,98257.09
2023-03-02T06:27:54.011Z,98256.13
2023-03-02T06:31:56.339Z,98259.22
2023-03-02T06:35:58.800Z,98254.06
2023-03-02T06:40:01.607Z,98250.44
2023-03-02T06:44:03.793Z,98258.81
2023-03-02T06:48:07.179Z,98258.91
2023-03-02T06:52:11.152Z,98265.50
2023-03-02T06:56:13.720Z,98264.84
2023-03-02T07:00:26.429Z,98266.84
2023-03-02T07:04:32.607Z,98265.56
2023-03-02T07:08:35.002Z,98265.59
2023-03-02T07:12:37.447Z,98262.84
2023-03-02T07:16:39.616Z,98274.94
2023-03-02T07:20:43.173Z,98276.06
2023-03-02T07:24:45.288Z,98269.06
2023-03-02T07:28:47.485Z,98274.41
2023-03-02T07:32:49.736Z,98276.25
2023-03-02T07:36:52.587Z,98282.03
2023-03-02T07:40:55.524Z,98286.31
2023-03-02T07:44:57.931Z,98287.66
2023-03-02T07:49:00.116Z,98278.81
2023-03-02T07:53:02.487Z,98268.38
2023-03-02T07:57:04.601Z,98274.84
2023-03-02T08:01:06.805Z,98277.25
2023-03-02T08:05:10.483Z,98284.97
2023-03-02T08:09:15.173Z,98282.97
2023-03-02T08:13:18.700Z,98283.50
2023-03-02T08:17:21.266Z,98286.06
2023-03-02T08:21:25.560Z,98290.41
2023-03-02T08:25:27.731Z,98280.13
2023-03-02T08:29:30.618Z,98269.63
2023-03-02T08:33:34.256Z,98280.09
2023-03-02T08:37:36.409Z,98268.16
2023-03-02T08:41:39.079Z,98278.75
2023-03-02T08:45:41.394Z,98281.94
2023-03-02T08:49:45.088Z,98283.53
2023-03-02T08:53:50.591Z,98289.06
2023-03-02T08:57:53.137Z,98285.03
2023-03-02T09:01:55.247Z,98290.34
2023-03-02T09:05:57.458Z,98279.56
2023-03-02T09:09:59.628Z,98274.28
2023-03-02T09:14:02.545Z,98284.19
2023-03-02T09:18:04.745Z,98277.94
2023-03-02T09:22:07.008Z,98286.22
2023-03-02T09:26:09.236Z,98286.72
2023-03-02T09:30:12.248Z,98281.91
2023-03-02T09:34:14.408Z,98286.75
2023-03-02T09:38:18.814Z,98284.06
2023-03-02T09:42:43.034Z,98278.69
2023-03-02T09:46:51.783Z,98271.28
2023-03-02T09:51:21.194Z,98264.94
2023-03-02T09:55:27.972Z,98274.66
2023-03-02T09:59:33.210Z,98277.72
2023-03-02T10:03:48.275Z,98286.50
2023-03-02T10:07:50.627Z,98290.72
2023-03-02T10:12:13.450Z,98294.19
2023-03-02T10:16:25.027Z,98299.56
2023-03-02T10:20:51.445Z,98293.00
2023-03-02T10:25:18.616Z,98290.56
2023-03-02T10:30:01.415Z,98287.78
2023-03-02T10:34:04.165Z,98282.13
2023-03-02T10:38:15.541Z,98263.19
2023-03-02T10:42:31.025Z,98273.06
2023-03-02T10:46:45.137Z,98274.91
2023-03-02T10:50:58.172Z,98272.81
2023-03-02T10:55:06.018Z,98285.53
2023-03-02T10:59:29.453Z,98283.50
2023-03-02T11:03:33.210Z,98287.28
2023-03-02T11:07:35.470Z,98281.41
2023-03-02T11:11:38.072Z,98275.78
2023-03-02T11:15:46.664Z,98270.22
2023-03-02T11:19:51.064Z,98265.69
2023-03-02T11:24:15.351Z,98272.88
2023-03-02T11:28:22.491Z,98266.22
2023-03-02T11:32:31.436Z,98257.44
2023-03-02T11:36:49.652Z,98254.72
2023-03-02T11:40:58.867Z,98260.88
2023-03-02T11:45:16.725Z,98258.69
2023-03-02T11:50:07.994Z,98255.53
2023-03-02T11:54:31.283Z,98238.09
2023-03-02T11:58:34.890Z,98231.78
2023-03-02T12:02:37.534Z,98228.50
2023-03-02T12:06:42.423Z,98235.94
2023-03-02T12:10:59.138Z,98227.22
2023-03-02T12:15:01.832Z,98220.84
2023-03-02T12:19:16.694Z,98231.09
2023-03-02T12:23:24.365Z,98230.63
2023-03-02T12:27:34.599Z,98237.31
2023-03-02T12:31:53.146Z,98233.75
2023-03-02T12:36:11.273Z,98227.31
2023-03-02T12:40:34.024Z,98225.75
2023-03-02T12:44:43.995Z,98213.41
2023-03-02T12:49:01.353Z,98227.41
2023-03-02T12:53:07.538Z,98219.50
2023-03-02T12:57:20.890Z,98219.56
2023-03-02T13:01:27.026Z,98221.16
2023-03-02T13:05:33.899Z,98217.22
2023-03-02T13:09:38.384Z,98206.47
2023-03-02T13:13:44.760Z,98204.97
2023-03-02T13:18:03.125Z,98201.50
2023-03-02T13:22:05.657Z,98203.66
2023-03-02T13:26:08.156Z,98202.13
2023-03-02T13:30:37.813Z,98197.81
2023-03-02T13:40:04.452Z,98193.03
2023-03-02T13:44:23.664Z,98202.06
2023-03-02T13:48:27.830Z,98199.13
2023-03-02T13:52:31.086Z,98191.56
2023-03-02T13:56:40.735Z,98186.75
2023-03-02T14:00:56.916Z,98190.09
2023-03-02T14:04:59.373Z,98197.28
2023-03-02T14:09:02.301Z,98194.13
2023-03-02T14:13:14.953Z,98194.16
2023-03-02T14:17:22.675Z,98172.59
2023-03-02T14:21:26.290Z,98166.69
2023-03-02T14:25:28.682Z,98175.47
2023-03-02T14:29:38.168Z,98167.81
2023-03-02T14:33:40.762Z,98172.84
2023-03-02T14:37:49.553Z,98179.22
2023-03-02T14:41:54.431Z,98184.06
2023-03-02T14:45:58.489Z,98186.72
2023-03-02T14:50:01.251Z,98179.25
2023-03-02T14:54:07.589Z,98177.13
2023-03-02T14:58:20.710Z,98178.47
2023-03-02T15:02:26.815Z,98172.34
2023-03-02T15:06:31.440Z,98171.78
2023-03-02T15:10:36.598Z,98174.44
2023-03-02T15:14:41.103Z,98178.19
2023-03-02T15:18:43.934Z,98172.06
2023-03-02T15:22:47.572Z,98177.66
2023-03-02T15:26:51.770Z,98178.72
2023-03-02T15:30:55.735Z,98167.84
2023-03-02T15:34:59.497Z,98174.47
2023-03-02T15:39:04.450Z,98174.47
2023-03-02T15:43:08.898Z,98180.84
2023-03-02T15:47:12.909Z,98169.91
2023-03-02T15:51:15.673Z,98177.88
2023-03-02T15:55:19.300Z,98168.84
2023-03-02T15:59:25.179Z,98175.97
2023-03-02T16:03:31.146Z,98179.56
2023-03-02T16:07:37.584Z,98181.13
2023-03-02T16:11:42.292Z,98177.16
2023-03-02T16:15:45.080Z,98181.66
2023-03-02T16:19:48.443Z,98174.44
2023-03-02T16:23:52.647Z,98188.44
2023-03-02T16:27:56.816Z,98193.69
2023-03-02T16:31:59.391Z,98196.75
2023-03-02T16:36:01.913Z,98203.13
2023-03-02T16:40:04.826Z,98194.91
2023-03-02T16:44:08.240Z,98207.03
2023-03-02T16:48:11.763Z,98202.75
2023-03-02T16:52:17.718Z,98207.41
2023-03-02T16:56:21.350Z,98209.72
2023-03-02T17:00:24.780Z,98220.31
2023-03-02T17:04:27.388Z,98220.22
2023-03-02T17:08:30.029Z,98214.88
2023-03-02T17:12:32.451Z,98238.81
2023-03-02T17:16:35.167Z,98238.38
2023-03-02T17:20:38.140Z,98237.47
2023-03-02T17:24:41.427Z,98235.50
2023-03-02T17:28:44.005Z,98241.00
2023-03-02T17:32:46.609Z,98249.69
2023-03-02T17:36:51.648Z,98259.06
2023-03-02T17:40:54.132Z,98262.94
2023-03-02T17:44:56.455Z,98273.53
2023-03-02T17:49:00.497Z,98273.56
2023-03-02T17:53:03.783Z,98270.94
2023-03-02T17:57:06.332Z,98274.81
2023-03-02T18:01:09.641Z,98283.69
2023-03-02T18:05:13.218Z,98286.25
2023-03-02T18:09:15.694Z,98285.94
2023-03-02T18:13:18.848Z,98289.63
2023-03-02T18:17:21.302Z,98299.97
2023-03-02T18:21:41.883Z,98305.97
2023-03-02T18:25:44.208Z,98315.34
2023-03-02T18:29:46.703Z,98316.66
2023-03-02T18:33:49.889Z,98314.00
2023-03-02T18:37:52.761Z,98306.75
2023-03-02T18:41:55.285Z,98327.94
2023-03-02T18:45:57.890Z,98316.53
2023-03-02T18:50:01.033Z,98317.03
2023-03-02T18:54:04.263Z,98320.84
2023-03-02T18:58:07.789Z,98322.69
2023-03-02T19:02:14.682Z,98315.72
2023-03-02T19:06:17.502Z,98317.03
2023-03-02T19:10:21.549Z,98311.75
2023-03-02T19:14:24.625Z,98313.59
2023-03-02T19:18:27.227Z,98337.72
2023-03-02T19:22:29.728Z,98337.72
2023-03-02T19:26:32.205Z,98336.44
2023-03-02T19:30:35.231Z,98336.25
2023-03-02T19:34:39.821Z,98341.09
2023-03-02T19:38:44.628Z,98347.69
2023-03-02T19:42:48.150Z,98344.09
2023-03-02T19:46:50.798Z,98346.31
2023-03-02T19:50:53.681Z,98348.50
2023-03-02T19:54:56.371Z,98362.94
2023-03-02T19:59:00.325Z,98363.00
2023-03-02T20:03:06.174Z,98360.38
2023-03-02T20:07:08.622Z,98358.53
2023-03-02T20:11:12.630Z,98361.19
2023-03-02T20:15:14.840Z,98363.81
2023-03-02T20:19:17.574Z,98356.66
2023-03-02T20:23:20.003Z,98354.78
2023-03-02T20:27:22.686Z,98355.16
2023-03-02T20:31:26.348Z,98357.47
2023-03-02T20:35:33.334Z,98360.25
2023-03-02T20:39:38.824Z,98368.25
2023-03-02T20:43:42.028Z,98376.47
2023-03-02T20:47:44.449Z,98381.78
2023-03-02T20:51:52.991Z,98386.03
2023-03-02T20:55:55.702Z,98380.19
2023-03-02T20:59:58.620Z,98390.81
2023-03-02T21:04:01.374Z,98388.41
2023-03-02T21:08:05.520Z,98384.97
2023-03-02T21:12:09.086Z,98385.22
2023-03-02T21:16:18.728Z,98385.22
2023-03-02T21:20:24.833Z,98386.28
2023-03-02T21:24:29.480Z,98389.63
2023-03-02T21:28:33.215Z,98382.59
2023-03-02T21:32:35.550Z,98372.06
2023-03-02T21:36:38.001Z,98381.19
2023-03-02T21:40:47.512Z,98375.03
2023-03-02T21:44:49.756Z,98364.69
2023-03-02T21:48:55.670Z,98372.03
2023-03-02T21:52:59.502Z,98372.28
2023-03-02T21:57:02.378Z,98365.94
2023-03-02T22:01:05.160Z,98372.06
2023-03-02T22:05:07.812Z,98359.56
2023-03-02T22:09:13.238Z,98374.00
2023-03-02T22:13:45.708Z,98383.84
2023-03-02T22:17:51.413Z,98379.88
2023-03-02T22:22:03.438Z,98362.13
2023-03-02T22:26:15.232Z,98366.97
2023-03-02T22:30:22.775Z,98361.66
2023-03-02T22:34:29.454Z,98356.38
2023-03-02T22:38:32.129Z,98347.91
2023-03-02T22:42:34.451Z,98361.06
2023-03-02T22:46:36.934Z,98364.22
2023-03-02T22:50:39.397Z,98364.88
2023-03-02T22:54:41.669Z,98351.63
2023-03-02T22:58:49.026Z,98356.31
2023-03-02T23:02:55.095Z,98364.69
2023-03-02T23:07:03.065Z,98368.88
2023-03-02T23:11:15.471Z,98368.50
2023-03-02T23:15:21.111Z,98368.50
2023-03-02T23:19:25.254Z,98372.50
2023-03-02T23:23:27.586Z,98361.69
2023-03-02T23:27:29.922Z,98367.19
2023-03-02T23:31:32.256Z,98366.59
2023-03-02T23:35:34.851Z,98364.69
2023-03-02T23:39:37.091Z,98367.28
2023-03-02T23:43:39.331Z,98375.59
2023-03-02T23:47:42.611Z,98366.06
2023-03-02T23:51:45.451Z,98382.00
2023-03-02T23:55:49.648Z,98381.19
2023-03-02T23:59:52.263Z,98375.66
